createdAt,value
2018-12-11T00:02:33.987Z,99.20
2018-12-11T00:05:10.564Z,98.94
2018-12-11T00:07:48.243Z,98.71
2018-12-11T00:10:35.407Z,99.25
2018-12-11T00:13:08.298Z,98.79
2018-12-11T00:15:45.454Z,98.81
2018-12-11T00:18:26.297Z,99.24
2018-12-11T00:21:00.411Z,98.57
2018-12-11T00:23:35.850Z,99.40
2018-12-11T00:26:19.385Z,99.15
2018-12-11T00:28:57.270Z,98.57
2018-12-11T00:31:40.043Z,98.69
2018-12-11T00:34:16.942Z,98.93
2018-12-11T00:36:53.922Z,98.90
2018-12-11T00:39:34.996Z,99.14
2018-12-11T00:42:21.929Z,99.50
2018-12-11T00:44:56.828Z,99.50
2018-12-11T00:47:40.125Z,99.62
2018-12-11T00:50:21.341Z,99.47
2018-12-11T00:52:58.779Z,99.78
2018-12-11T00:55:34.727Z,99.62
2018-12-11T00:58:09.114Z,99.83
2018-12-11T01:00:46.878Z,99.73
2018-12-11T01:03:24.812Z,99.07
2018-12-11T01:06:03.215Z,100.00
2018-12-11T01:08:37.283Z,99.44
2018-12-11T01:11:12.220Z,99.32
2018-12-11T01:13:56.293Z,99.59
2018-12-11T01:16:35.854Z,99.69
2018-12-11T01:22:34.117Z,99.59
2018-12-11T01:25:19.054Z,99.10
2018-12-11T01:28:09.867Z,99.12
2018-12-11T01:30:45.964Z,99.06
2018-12-11T01:33:26.587Z,99.59
2018-12-11T01:36:04.772Z,99.13
2018-12-11T01:42:14.595Z,99.03
2018-12-11T01:44:52.730Z,99.22
2018-12-11T01:47:30.673Z,99.48
2018-12-11T01:50:09.508Z,98.62
2018-12-11T01:53:06.220Z,99.06
2018-12-11T01:55:42.154Z,99.14
2018-12-11T01:58:22.464Z,99.31
2018-12-11T02:00:58.083Z,99.15
2018-12-11T02:03:35.838Z,99.10
2018-12-11T02:06:11.588Z,99.30
2018-12-11T02:08:53.844Z,99.28
2018-12-11T02:11:39.332Z,99.45
2018-12-11T02:14:17.610Z,98.86
2018-12-11T02:16:54.943Z,99.05
2018-12-11T02:19:31.528Z,99.48
2018-12-11T02:22:13.733Z,99.60
2018-12-11T02:24:53.040Z,99.49
2018-12-11T02:27:31.270Z,99.00
2018-12-11T02:30:08.958Z,99.43
2018-12-11T02:32:52.492Z,99.37
2018-12-11T02:35:31.478Z,99.90
2018-12-11T02:38:08.052Z,99.44
2018-12-11T02:40:57.211Z,99.22
2018-12-11T02:43:33.818Z,99.70
2018-12-11T02:46:10.111Z,99.73
2018-12-11T02:48:48.361Z,99.66
2018-12-11T02:51:26.256Z,99.21
2018-12-11T02:54:00.915Z,99.82
2018-12-11T02:56:37.617Z,99.46
2018-12-11T02:59:14.391Z,98.94
2018-12-11T03:01:54.420Z,99.52
2018-12-11T03:04:35.715Z,99.44
2018-12-11T03:07:11.901Z,99.30
2018-12-11T03:09:48.841Z,99.55
2018-12-11T03:12:24.186Z,99.16
2018-12-11T03:15:00.267Z,99.24
2018-12-11T03:17:37.952Z,99.17
2018-12-11T03:20:15.041Z,99.18
2018-12-11T03:22:51.452Z,98.75
2018-12-11T03:25:28.297Z,98.46
2018-12-11T03:28:03.985Z,97.87
2018-12-11T03:30:39.166Z,98.78
2018-12-11T03:33:16.814Z,98.01
2018-12-11T03:35:56.216Z,98.05
2018-12-11T03:38:51.621Z,97.90
2018-12-11T03:41:33.396Z,97.71
2018-12-11T03:44:11.814Z,97.13
2018-12-11T03:46:48.300Z,97.15
2018-12-11T03:49:19.713Z,96.94
2018-12-11T03:51:51.142Z,96.64
2018-12-11T03:54:21.876Z,96.59
2018-12-11T03:56:52.458Z,96.67
2018-12-11T03:59:23.195Z,96.55
2018-12-11T04:01:54.110Z,96.45
2018-12-11T04:04:30.956Z,96.25
2018-12-11T04:07:04.304Z,96.49
2018-12-11T04:13:53.268Z,95.61
2018-12-11T04:16:29.921Z,95.72
2018-12-11T04:19:06.153Z,95.53
2018-12-11T04:21:41.655Z,95.38
2018-12-11T04:24:13.651Z,94.82
2018-12-11T04:26:52.569Z,94.53
2018-12-11T04:29:26.568Z,94.64
2018-12-11T04:32:00.828Z,94.09
2018-12-11T04:34:36.990Z,93.92
2018-12-11T04:37:19.884Z,93.87
2018-12-11T04:39:53.775Z,93.80
2018-12-11T04:42:37.886Z,93.67
2018-12-11T04:45:24.792Z,93.11
2018-12-11T04:48:04.524Z,93.20
2018-12-11T04:50:42.526Z,92.81
2018-12-11T04:53:24.135Z,92.77
2018-12-11T04:56:07.594Z,92.81
2018-12-11T04:58:46.052Z,92.92
2018-12-11T05:01:22.668Z,92.66
2018-12-11T05:03:59.570Z,92.68
2018-12-11T05:06:51.387Z,92.62
2018-12-11T05:09:34.430Z,92.86
2018-12-11T05:12:15.321Z,93.24
2018-12-11T05:14:59.494Z,92.95
2018-12-11T05:17:41.079Z,93.24
2018-12-11T05:20:36.326Z,93.21
2018-12-11T05:23:20.548Z,93.22
2018-12-11T05:26:00.593Z,92.93
2018-12-11T05:28:46.606Z,93.03
2018-12-11T05:34:41.113Z,93.32
2018-12-11T05:37:21.999Z,93.29
2018-12-11T05:40:05.355Z,93.26
2018-12-11T06:01:33.814Z,92.97
2018-12-11T06:04:16.138Z,92.64
2018-12-11T06:06:56.513Z,92.69
2018-12-11T06:09:53.719Z,92.64
2018-12-11T06:12:36.949Z,92.45
2018-12-11T06:15:16.433Z,92.07
2018-12-11T06:18:00.435Z,92.00
2018-12-11T06:20:41.094Z,92.31
2018-12-11T06:23:18.000Z,91.68
2018-12-11T06:25:56.145Z,91.60
2018-12-11T06:28:36.271Z,91.69
2018-12-11T06:31:14.321Z,91.33
2018-12-11T06:33:53.393Z,91.22
2018-12-11T06:39:36.304Z,91.05
2018-12-11T06:42:13.487Z,91.05
2018-12-11T06:44:50.274Z,91.30
2018-12-11T06:47:35.962Z,91.13
2018-12-11T06:50:26.852Z,90.87
2018-12-11T06:53:13.912Z,90.93
2018-12-11T06:56:08.906Z,91.03
2018-12-11T06:58:48.125Z,90.95
2018-12-11T07:01:31.962Z,91.15
2018-12-11T07:09:50.017Z,90.74
2018-12-11T07:12:31.841Z,90.68
2018-12-11T07:15:10.654Z,90.70
2018-12-11T07:17:50.201Z,90.37
2018-12-11T07:20:31.419Z,90.63
2018-12-11T07:23:10.084Z,90.94
2018-12-11T07:25:55.301Z,90.88
2018-12-11T07:31:14.814Z,91.12
2018-12-11T07:33:52.960Z,91.64
2018-12-11T07:36:33.307Z,91.15
2018-12-11T07:39:09.921Z,91.18
2018-12-11T07:41:55.060Z,91.02
2018-12-11T07:44:32.101Z,91.22
2018-12-11T07:47:14.685Z,91.48
2018-12-11T07:49:50.822Z,91.72
2018-12-11T07:52:34.065Z,91.79
2018-12-11T07:55:13.900Z,91.46
2018-12-11T07:57:55.029Z,91.65
2018-12-11T08:00:33.619Z,91.66
2018-12-11T08:03:30.567Z,92.26
2018-12-11T08:06:14.833Z,92.09
2018-12-11T08:08:56.907Z,92.29
2018-12-11T08:11:41.962Z,92.26
2018-12-11T08:14:27.312Z,92.79
2018-12-11T08:17:17.439Z,92.38
2018-12-11T08:19:58.102Z,92.47
2018-12-11T08:25:51.371Z,92.55
2018-12-11T08:28:32.495Z,92.81
2018-12-11T08:31:11.656Z,92.51
2018-12-11T08:33:51.223Z,92.75
2018-12-11T08:36:33.748Z,93.01
2018-12-11T08:39:16.117Z,92.62
2018-12-11T08:42:07.575Z,92.07
2018-12-11T08:48:15.625Z,92.13
2018-12-11T08:51:04.981Z,92.29
2018-12-11T08:53:53.007Z,92.25
2018-12-11T08:56:50.589Z,92.98
2018-12-11T08:59:35.390Z,92.63
2018-12-11T09:02:30.946Z,92.64
2018-12-11T09:05:22.141Z,92.33
2018-12-11T09:11:13.563Z,92.20
2018-12-11T09:13:57.059Z,92.30
2018-12-11T09:16:50.014Z,92.23
2018-12-11T09:19:40.546Z,92.30
2018-12-11T09:22:27.716Z,92.58
2018-12-11T09:28:17.100Z,92.60
2018-12-11T09:31:15.048Z,92.51
2018-12-11T09:34:00.294Z,92.51
2018-12-11T09:36:50.228Z,92.90
2018-12-11T10:02:54.499Z,93.50
2018-12-11T10:09:00.735Z,93.77
2018-12-11T10:17:58.544Z,93.62
2018-12-11T10:20:48.215Z,93.66
2018-12-11T10:26:54.835Z,94.29
2018-12-11T10:29:56.481Z,93.94
2018-12-11T10:32:36.156Z,94.03
2018-12-11T10:35:14.502Z,94.28
2018-12-11T10:37:59.040Z,94.26
2018-12-11T10:53:22.327Z,95.04
2018-12-11T10:56:17.315Z,94.71
2018-12-11T10:58:59.726Z,94.67
2018-12-11T11:04:55.649Z,94.47
2018-12-11T11:07:33.653Z,94.56
2018-12-11T11:10:16.444Z,94.58
2018-12-11T11:12:53.126Z,94.61
2018-12-11T11:15:34.396Z,94.51
2018-12-11T11:18:30.211Z,94.88
2018-12-11T11:21:07.148Z,95.22
2018-12-11T11:23:58.884Z,95.40
2018-12-11T11:29:57.787Z,94.81
2018-12-11T11:32:53.115Z,95.28
2018-12-11T11:35:34.906Z,95.24
2018-12-11T11:38:24.160Z,94.61
2018-12-11T11:44:19.345Z,94.84
2018-12-11T11:47:09.584Z,95.02
2018-12-11T11:49:44.929Z,94.73
2018-12-11T11:52:23.882Z,95.00
2018-12-11T11:55:19.587Z,95.14
2018-12-11T12:01:14.502Z,94.65
2018-12-11T12:03:58.386Z,94.94
2018-12-11T12:06:33.969Z,95.15
2018-12-11T12:09:18.687Z,94.72
2018-12-11T21:32:45.659Z,99.58
2018-12-11T21:35:28.972Z,99.52
2018-12-11T21:38:06.896Z,98.91
2018-12-11T21:40:56.433Z,98.99
2018-12-11T21:46:51.043Z,98.05
2018-12-11T21:49:28.003Z,98.07
2018-12-11T21:52:23.526Z,98.81
2018-12-11T21:55:08.122Z,98.95
2018-12-11T21:57:41.982Z,98.82
2018-12-11T22:00:25.790Z,98.44
2018-12-11T22:03:07.529Z,97.84
2018-12-11T22:05:58.751Z,98.54
2018-12-11T22:08:38.319Z,98.94
2018-12-11T22:14:28.377Z,99.71
2018-12-11T22:17:00.461Z,99.88
2018-12-11T22:19:37.445Z,99.47
2018-12-11T22:22:27.142Z,99.72
2018-12-11T22:25:10.455Z,99.62
2018-12-11T22:27:47.851Z,99.69
2018-12-11T22:30:25.256Z,99.67
2018-12-11T22:36:17.762Z,99.70
2018-12-11T22:41:59.993Z,99.16
2018-12-11T22:44:41.781Z,99.48
2018-12-11T22:47:20.339Z,99.59
2018-12-11T22:49:57.484Z,98.44
2018-12-11T22:59:15.722Z,94.53
2018-12-11T23:01:46.681Z,93.37
2018-12-11T23:04:29.890Z,93.29
2018-12-11T23:07:19.366Z,93.10
2018-12-11T23:10:16.778Z,93.16
2018-12-11T23:12:49.439Z,93.14
2018-12-11T23:18:28.094Z,93.87
2018-12-11T23:21:06.388Z,93.66
2018-12-11T23:23:47.673Z,93.96
2018-12-11T23:26:22.309Z,94.36
2018-12-11T23:28:59.195Z,94.71
2018-12-11T23:31:44.371Z,95.83
2018-12-11T23:34:15.409Z,95.93
2018-12-11T23:37:11.308Z,96.41
2018-12-11T23:39:54.637Z,95.83
2018-12-11T23:42:44.049Z,96.11
2018-12-11T23:45:20.890Z,96.83
